Time;durP1;ratioP1;P1;durP2;ratioP2;P2;SDS_P1;SDS_P2;PMS_P1;PMS_P2;Temp;Humidity;BMP_temperature;BMP_pressure;BME280_temperature;BME280_humidity;BME280_pressure;Samples;Min_cycle;Max_cycle;Signal;HPM_P1;HPM_P2
2024/02/27 00:01:51;;;;;;;;;;;5.40;99.90;;;;;;4988945;28;20326;-80
2024/02/27 00:04:17;;;;;;;;;;;5.30;99.90;;;;;;4982581;28;20249;-80
2024/02/27 00:06:43;;;;;;;;;;;5.30;99.90;;;;;;4962812;28;19918;-80
2024/02/27 00:09:18;;;;;;;;;;;5.30;99.90;;;;;;4980940;28;19929;-79
2024/02/27 00:11:44;;;;;;;;;;;5.30;99.90;;;;;;4983174;28;19921;-80
2024/02/27 00:14:11;;;;;;;;;;;5.20;99.90;;;;;;4999325;28;19929;-80
2024/02/27 00:16:37;;;;;;;;;;;5.20;99.90;;;;;;4982456;28;20031;-80
2024/02/27 00:19:03;;;;;;;;;;;5.20;99.90;;;;;;4976783;28;20385;-80
2024/02/27 00:21:28;;;;;;;;;;;5.20;99.90;;;;;;4969823;28;19914;-80
2024/02/27 00:23:57;;;;;;;;;;;5.20;99.90;;;;;;4978723;28;19943;-81
2024/02/27 00:26:23;;;;;;;;;;;5.20;99.90;;;;;;4983756;28;19913;-80
2024/02/27 00:28:50;;;;;;;;;;;5.10;99.90;;;;;;4999016;28;20333;-80
2024/02/27 00:31:24;;;;;;;;;;;5.10;99.90;;;;;;4983320;28;19914;-80
2024/02/27 00:33:50;;;;;;;;;;;5.10;99.90;;;;;;4992893;28;19918;-81
2024/02/27 00:36:17;;;;;;;;;;;5.10;99.90;;;;;;4984861;28;20206;-81
2024/02/27 00:38:42;;;;;;;;;;;5.10;99.90;;;;;;4995967;28;19933;-80
2024/02/27 00:41:08;;;;;;;;;;;5.00;99.90;;;;;;4979380;28;19917;-80
2024/02/27 00:43:34;;;;;;;;;;;5.00;99.90;;;;;;4986788;28;19917;-80
2024/02/27 00:46:00;;;;;;;;;;;5.00;99.90;;;;;;4992588;28;20048;-80
2024/02/27 00:48:34;;;;;;;;;;;4.90;99.90;;;;;;5000607;28;20033;-80
2024/02/27 00:51:03;;;;;;;;;;;5.00;99.90;;;;;;4993896;28;19913;-80
2024/02/27 00:53:31;;;;;;;;;;;4.90;99.90;;;;;;4974675;28;19996;-80
2024/02/27 00:55:57;;;;;;;;;;;4.90;99.90;;;;;;4987936;28;20337;-79
2024/02/27 00:58:23;;;;;;;;;;;4.90;99.90;;;;;;4988667;28;20016;-80
2024/02/27 01:00:49;;;;;;;;;;;4.90;99.90;;;;;;5005546;28;19914;-80
2024/02/27 01:03:15;;;;;;;;;;;4.80;99.90;;;;;;4984956;28;19990;-80
2024/02/27 01:05:41;;;;;;;;;;;4.80;99.90;;;;;;4987296;28;19971;-80
2024/02/27 01:08:07;;;;;;;;;;;4.70;99.90;;;;;;4986355;28;20648;-79
2024/02/27 01:10:46;;;;;;;;;;;4.70;99.90;;;;;;5018302;28;19917;-80
2024/02/27 01:13:16;;;;;;;;;;;4.70;99.90;;;;;;4990388;28;19922;-80
2024/02/27 01:16:01;;;;;;;;;;;4.60;99.90;;;;;;5007614;28;19928;-80
2024/02/27 01:18:27;;;;;;;;;;;4.60;99.90;;;;;;5003536;28;19917;-79
2024/02/27 01:20:55;;;;;;;;;;;4.60;99.90;;;;;;4974234;28;19918;-79
2024/02/27 01:23:21;;;;;;;;;;;4.60;99.90;;;;;;5003254;28;19928;-80
2024/02/27 01:25:46;;;;;;;;;;;4.50;99.90;;;;;;4992364;28;19924;-80
2024/02/27 01:28:12;;;;;;;;;;;4.50;99.90;;;;;;5023807;28;19913;-80
2024/02/27 01:30:38;;;;;;;;;;;4.50;99.90;;;;;;5021106;28;19924;-80
2024/02/27 01:33:12;;;;;;;;;;;4.40;99.90;;;;;;5005027;28;20322;-80
2024/02/27 01:35:37;;;;;;;;;;;4.40;99.90;;;;;;5005747;28;19956;-80
2024/02/27 01:38:07;;;;;;;;;;;4.30;99.90;;;;;;4993002;28;19914;-80
2024/02/27 01:40:37;;;;;;;;;;;4.40;99.90;;;;;;4976534;28;19993;-80
2024/02/27 01:43:18;;;;;;;;;;;4.40;99.90;;;;;;4950662;28;19914;-80
2024/02/27 01:46:04;;;;;;;;;;;4.40;99.90;;;;;;4950044;28;19918;-80
2024/02/27 01:48:35;;;;;;;;;;;4.30;99.90;;;;;;4949016;28;20016;-80
2024/02/27 01:51:09;;;;;;;;;;;4.30;99.90;;;;;;4947121;28;19933;-81
2024/02/27 01:53:54;;;;;;;;;;;4.30;99.90;;;;;;4948800;28;20311;-81
2024/02/27 01:56:26;;;;;;;;;;;4.20;99.90;;;;;;4965787;28;19945;-81
2024/02/27 01:59:01;;;;;;;;;;;4.20;99.90;;;;;;4964615;28;19920;-81
2024/02/27 02:01:28;;;;;;;;;;;4.20;99.90;;;;;;4949822;28;19918;-80
2024/02/27 02:04:14;;;;;;;;;;;;;;;;;;;;;
2024/02/27 02:06:43;;;;;;;;;;;4.10;99.90;;;;;;4966632;28;20322;-81
2024/02/27 02:09:09;;;;;;;;;;;4.20;99.90;;;;;;4964805;28;19933;-81
2024/02/27 02:11:37;;;;;;;;;;;4.10;99.90;;;;;;4964699;28;19914;-81
2024/02/27 02:14:06;;;;;;;;;;;4.10;99.90;;;;;;4969125;28;19914;-81
2024/02/27 02:16:38;;;;;;;;;;;4.00;99.90;;;;;;4961187;28;20025;-81
2024/02/27 02:19:09;;;;;;;;;;;4.10;99.90;;;;;;4945592;28;20327;-81
2024/02/27 02:21:41;;;;;;;;;;;4.00;99.90;;;;;;4945476;28;19918;-81
2024/02/27 02:24:07;;;;;;;;;;;4.00;99.90;;;;;;4947789;28;19914;-81
2024/02/27 02:26:35;;;;;;;;;;;4.00;99.90;;;;;;4952533;28;19921;-81
2024/02/27 02:29:07;;;;;;;;;;;4.00;99.90;;;;;;4969606;28;19953;-81
2024/02/27 02:32:11;;;;;;;;;;;4.00;99.90;;;;;;4971293;28;19928;-81
2024/02/27 02:34:47;;;;;;;;;;;4.00;99.90;;;;;;4963748;28;20320;-81
2024/02/27 02:37:15;;;;;;;;;;;4.00;99.90;;;;;;4964685;28;19992;-81
2024/02/27 02:39:43;;;;;;;;;;;4.00;99.90;;;;;;4963331;28;19918;-82
2024/02/27 02:42:15;;;;;;;;;;;3.90;99.90;;;;;;4946984;28;20421;-81
2024/02/27 02:47:58;;;;;;;;;;;3.90;99.90;;;;;;4984964;28;19981;-82
2024/02/27 02:50:42;;;;;;;;;;;3.90;99.90;;;;;;4964188;28;19914;-82
2024/02/27 02:53:34;;;;;;;;;;;3.90;99.90;;;;;;4959860;28;19965;-82
2024/02/27 02:55:59;;;;;;;;;;;3.90;99.90;;;;;;4959718;28;19914;-82
2024/02/27 02:58:50;;;;;;;;;;;3.80;99.90;;;;;;4939182;28;20318;-82
2024/02/27 03:01:20;;;;;;;;;;;3.70;99.90;;;;;;4956458;28;19989;-82
2024/02/27 03:03:57;;;;;;;;;;;3.80;99.90;;;;;;4966916;28;19914;-82
2024/02/27 03:06:38;;;;;;;;;;;;;;;;;;;;;
2024/02/27 03:09:12;;;;;;;;;;;3.70;99.90;;;;;;4967873;28;19918;-82
2024/02/27 03:11:40;;;;;;;;;;;3.80;99.90;;;;;;4948662;28;19913;-82
2024/02/27 03:14:10;;;;;;;;;;;3.80;99.90;;;;;;4963299;28;20572;-82
2024/02/27 03:16:45;;;;;;;;;;;3.80;99.90;;;;;;4964465;28;19914;-81
2024/02/27 03:19:26;;;;;;;;;;;;;;;;;;;;;
2024/02/27 03:21:56;;;;;;;;;;;3.80;99.90;;;;;;4969024;28;19997;-81
2024/02/27 03:24:35;;;;;;;;;;;;;;;;;;;;;
2024/02/27 03:27:38;;;;;;;;;;;3.70;99.90;;;;;;5000604;28;19940;-81
2024/02/27 03:30:10;;;;;;;;;;;3.50;99.90;;;;;;5006531;28;19909;-83
2024/02/27 03:32:48;;;;;;;;;;;3.50;99.90;;;;;;4984760;28;20258;-82
2024/02/27 03:35:18;;;;;;;;;;;3.50;99.90;;;;;;4969448;28;20338;-82
2024/02/27 03:37:48;;;;;;;;;;;3.70;99.90;;;;;;4950809;28;20227;-81
2024/02/27 03:40:17;;;;;;;;;;;3.60;99.90;;;;;;4961578;28;20000;-81
2024/02/27 03:43:03;;;;;;;;;;;3.60;99.90;;;;;;4971680;28;20004;-83
2024/02/27 03:45:45;;;;;;;;;;;3.60;99.90;;;;;;4974846;28;20334;-82
2024/02/27 03:48:30;;;;;;;;;;;;;;;;;;;;;
2024/02/27 03:51:04;;;;;;;;;;;3.60;99.90;;;;;;4972066;28;19914;-82
2024/02/27 03:53:56;;;;;;;;;;;3.60;99.90;;;;;;4977935;28;19949;-82
2024/02/27 03:57:02;;;;;;;;;;;3.60;99.90;;;;;;4989923;28;19921;-82
2024/02/27 03:59:29;;;;;;;;;;;3.50;99.90;;;;;;4979591;28;19976;-82
2024/02/27 04:02:00;;;;;;;;;;;3.60;99.90;;;;;;4989071;28;19913;-82
2024/02/27 04:04:33;;;;;;;;;;;3.50;99.90;;;;;;4977087;28;19925;-81
2024/02/27 04:06:59;;;;;;;;;;;3.60;99.90;;;;;;4958865;28;19942;-81
2024/02/27 04:33:02;;;;;;;;;;;;;;;;;;;;;
2024/02/27 04:35:50;;;;;;;;;;;;;;;;;;;;;
2024/02/27 05:02:00;;;;;;;;;;;3.70;99.90;;;;;;5788946;23;19909;-84
2024/02/27 05:16:32;;;;;;;;;;;3.60;99.90;;;;;;5003344;28;20306;-80
2024/02/27 05:19:03;;;;;;;;;;;3.70;99.90;;;;;;4982688;28;19917;-80
2024/02/27 05:21:39;;;;;;;;;;;3.70;99.90;;;;;;4997529;28;20410;-81
2024/02/27 05:24:25;;;;;;;;;;;3.80;99.90;;;;;;4965287;28;19918;-81
2024/02/27 05:27:04;;;;;;;;;;;3.70;99.90;;;;;;4972074;28;19914;-80
2024/02/27 05:29:49;;;;;;;;;;;3.80;99.90;;;;;;4973494;28;20528;-80
2024/02/27 05:32:37;;;;;;;;;;;3.70;99.90;;;;;;4988645;28;19952;-80
2024/02/27 05:35:23;;;;;;;;;;;3.70;99.90;;;;;;4985864;28;19917;-81
2024/02/27 05:38:09;;;;;;;;;;;3.90;99.90;;;;;;4985015;28;19917;-80
2024/02/27 05:40:38;;;;;;;;;;;3.80;99.90;;;;;;4981274;28;20503;-80
2024/02/27 05:43:03;;;;;;;;;;;3.70;99.90;;;;;;4950766;28;20004;-80
2024/02/27 05:45:32;;;;;;;;;;;3.80;99.90;;;;;;4984332;28;19914;-79
2024/02/27 05:48:00;;;;;;;;;;;3.80;99.90;;;;;;4984935;28;19914;-79
2024/02/27 05:50:26;;;;;;;;;;;3.80;99.90;;;;;;4985055;28;19964;-79
2024/02/27 05:52:54;;;;;;;;;;;3.90;99.90;;;;;;4984409;28;20313;-80
2024/02/27 05:55:37;;;;;;;;;;;3.90;99.90;;;;;;4971050;28;19939;-80
2024/02/27 05:58:05;;;;;;;;;;;3.90;99.90;;;;;;4998851;28;19932;-80
2024/02/27 06:00:38;;;;;;;;;;;3.80;99.90;;;;;;4968557;28;19921;-80
2024/02/27 06:03:14;;;;;;;;;;;3.90;99.90;;;;;;4965789;28;19914;-80
2024/02/27 06:05:48;;;;;;;;;;;3.90;99.90;;;;;;4965431;28;19960;-80
2024/02/27 06:08:17;;;;;;;;;;;3.90;99.90;;;;;;4982339;28;19913;-80
2024/02/27 06:10:46;;;;;;;;;;;4.00;99.90;;;;;;4967442;28;19921;-81
2024/02/27 06:13:20;;;;;;;;;;;3.90;99.90;;;;;;4967585;28;19968;-80
2024/02/27 06:16:00;;;;;;;;;;;;;;;;;;;;;
2024/02/27 06:18:28;;;;;;;;;;;4.00;99.90;;;;;;4978075;28;20353;-81
2024/02/27 06:24:04;;;;;;;;;;;3.90;99.90;;;;;;4981047;28;19929;-80
2024/02/27 06:26:39;;;;;;;;;;;4.00;99.90;;;;;;4960891;28;19967;-80
2024/02/27 06:29:22;;;;;;;;;;;4.00;99.90;;;;;;4973581;28;20021;-81
2024/02/27 06:31:50;;;;;;;;;;;4.00;99.90;;;;;;4968225;28;19956;-80
2024/02/27 06:34:22;;;;;;;;;;;4.00;99.90;;;;;;4968536;28;19921;-80
2024/02/27 06:36:48;;;;;;;;;;;4.00;99.90;;;;;;4967426;28;19987;-81
2024/02/27 06:39:41;;;;;;;;;;;3.90;99.90;;;;;;5005388;28;19918;-81
2024/02/27 06:42:08;;;;;;;;;;;4.10;99.90;;;;;;5001783;28;19956;-82
2024/02/27 06:44:44;;;;;;;;;;;4.00;99.90;;;;;;4974758;28;19929;-79
2024/02/27 06:47:09;;;;;;;;;;;4.00;99.90;;;;;;4969049;28;19975;-80
2024/02/27 06:49:35;;;;;;;;;;;4.00;99.90;;;;;;4949754;28;19918;-80
2024/02/27 06:52:02;;;;;;;;;;;4.00;99.90;;;;;;4949833;28;19918;-80
2024/02/27 06:54:28;;;;;;;;;;;4.00;99.90;;;;;;4965744;28;19914;-80
2024/02/27 06:56:55;;;;;;;;;;;4.10;99.90;;;;;;4948925;28;19924;-80
2024/02/27 06:59:21;;;;;;;;;;;4.10;99.90;;;;;;4964852;28;20477;-80
2024/02/27 07:01:46;;;;;;;;;;;4.10;99.90;;;;;;4983789;28;19960;-80
2024/02/27 07:04:12;;;;;;;;;;;4.10;99.90;;;;;;4980749;28;20258;-80
2024/02/27 07:06:38;;;;;;;;;;;4.20;99.90;;;;;;4965670;28;20154;-80
2024/02/27 07:09:04;;;;;;;;;;;4.20;99.90;;;;;;4979304;28;19975;-80
2024/02/27 07:11:33;;;;;;;;;;;4.20;99.90;;;;;;4999703;28;19917;-80
2024/02/27 07:13:58;;;;;;;;;;;4.20;99.90;;;;;;5016622;28;19925;-79
2024/02/27 07:16:24;;;;;;;;;;;4.30;99.90;;;;;;4980070;28;20286;-79
2024/02/27 07:18:50;;;;;;;;;;;4.20;99.90;;;;;;4964020;28;20005;-79
2024/02/27 07:21:16;;;;;;;;;;;4.20;99.90;;;;;;4963640;28;19917;-79
2024/02/27 07:23:41;;;;;;;;;;;4.30;99.90;;;;;;4950207;28;19918;-80
2024/02/27 07:26:07;;;;;;;;;;;4.30;99.90;;;;;;4983403;28;19917;-80
2024/02/27 07:28:33;;;;;;;;;;;4.30;99.90;;;;;;4983254;28;19948;-80
2024/02/27 07:30:59;;;;;;;;;;;4.30;99.90;;;;;;4999346;28;19941;-80
2024/02/27 07:33:25;;;;;;;;;;;4.30;99.90;;;;;;4983150;28;19979;-80
2024/02/27 07:35:50;;;;;;;;;;;4.30;99.90;;;;;;4970594;28;19964;-80
2024/02/27 07:38:16;;;;;;;;;;;4.30;99.90;;;;;;4963792;28;20330;-79
2024/02/27 07:40:42;;;;;;;;;;;4.30;99.90;;;;;;4972468;28;19936;-80
2024/02/27 07:43:08;;;;;;;;;;;4.40;99.90;;;;;;4983540;28;19914;-80
2024/02/27 07:45:33;;;;;;;;;;;4.30;99.90;;;;;;4964124;28;20306;-80
2024/02/27 07:48:02;;;;;;;;;;;4.40;99.90;;;;;;4977138;28;19940;-80
2024/02/27 07:50:27;;;;;;;;;;;4.40;99.90;;;;;;4987520;28;20310;-80
2024/02/27 07:52:53;;;;;;;;;;;4.40;99.90;;;;;;4986922;28;19989;-80
2024/02/27 07:55:19;;;;;;;;;;;4.50;99.90;;;;;;4983415;28;20607;-80
2024/02/27 07:57:48;;;;;;;;;;;4.50;99.90;;;;;;4968306;28;19944;-80
2024/02/27 08:00:14;;;;;;;;;;;4.60;99.90;;;;;;4975225;28;20301;-80
2024/02/27 08:02:40;;;;;;;;;;;4.60;99.90;;;;;;4951339;28;19913;-81
2024/02/27 08:05:06;;;;;;;;;;;4.60;99.90;;;;;;4990509;28;19918;-80
2024/02/27 08:07:33;;;;;;;;;;;4.60;99.90;;;;;;4969282;28;19941;-81
2024/02/27 08:09:59;;;;;;;;;;;4.60;99.90;;;;;;4974002;28;19924;-81
2024/02/27 08:12:24;;;;;;;;;;;4.60;99.90;;;;;;4968780;28;19921;-80
2024/02/27 08:14:50;;;;;;;;;;;4.70;99.90;;;;;;4951789;28;19968;-80
2024/02/27 08:17:18;;;;;;;;;;;4.70;99.90;;;;;;4953331;28;20390;-81
2024/02/27 08:19:44;;;;;;;;;;;4.80;99.90;;;;;;4963750;28;19973;-81
2024/02/27 08:22:09;;;;;;;;;;;4.70;99.90;;;;;;4954867;28;19914;-80
2024/02/27 08:24:35;;;;;;;;;;;4.80;99.90;;;;;;4988874;28;20313;-81
2024/02/27 08:27:01;;;;;;;;;;;4.80;99.90;;;;;;4964044;28;19918;-81
2024/02/27 08:29:27;;;;;;;;;;;4.80;99.90;;;;;;4967418;28;19918;-80
2024/02/27 08:31:53;;;;;;;;;;;4.90;99.90;;;;;;4970653;28;19922;-81
2024/02/27 08:34:19;;;;;;;;;;;4.90;99.90;;;;;;4955815;28;19918;-80
2024/02/27 08:36:45;;;;;;;;;;;4.80;99.90;;;;;;4952394;28;19929;-80
2024/02/27 08:39:14;;;;;;;;;;;4.90;99.90;;;;;;4956653;28;20336;-81
2024/02/27 08:41:39;;;;;;;;;;;4.90;99.90;;;;;;4957642;28;19917;-80
2024/02/27 08:44:05;;;;;;;;;;;4.90;99.90;;;;;;4948130;28;19924;-81
2024/02/27 08:46:32;;;;;;;;;;;4.90;99.90;;;;;;4934838;28;19914;-79
2024/02/27 08:48:59;;;;;;;;;;;4.90;99.90;;;;;;4989863;28;19928;-80
2024/02/27 08:51:33;;;;;;;;;;;5.00;99.90;;;;;;4953881;28;19917;-80
2024/02/27 08:54:02;;;;;;;;;;;5.00;99.90;;;;;;4963761;28;19918;-80
2024/02/27 08:56:28;;;;;;;;;;;4.90;99.90;;;;;;4951489;28;20242;-80
2024/02/27 08:58:59;;;;;;;;;;;5.00;99.90;;;;;;4949536;28;19918;-80
2024/02/27 09:01:27;;;;;;;;;;;4.90;99.90;;;;;;4983663;28;19929;-80
2024/02/27 09:03:55;;;;;;;;;;;5.00;99.90;;;;;;4966794;28;19913;-81
2024/02/27 09:06:43;;;;;;;;;;;4.90;99.90;;;;;;4965255;28;19914;-80
2024/02/27 09:09:09;;;;;;;;;;;5.00;99.90;;;;;;4947358;28;20657;-80
2024/02/27 09:11:34;;;;;;;;;;;5.00;99.90;;;;;;4953180;28;19925;-80
2024/02/27 09:14:00;;;;;;;;;;;5.10;99.90;;;;;;4997309;28;19922;-80
2024/02/27 09:16:26;;;;;;;;;;;5.10;99.90;;;;;;4983801;28;19966;-80
2024/02/27 09:18:55;;;;;;;;;;;5.10;99.90;;;;;;4978435;28;19914;-80
2024/02/27 09:21:21;;;;;;;;;;;5.10;99.90;;;;;;4969630;28;20250;-80
2024/02/27 09:23:47;;;;;;;;;;;5.10;99.90;;;;;;4970202;28;19913;-80
2024/02/27 09:26:18;;;;;;;;;;;5.10;99.90;;;;;;4964113;28;19917;-80
2024/02/27 09:28:56;;;;;;;;;;;5.20;99.90;;;;;;4951818;28;19914;-81
2024/02/27 09:31:22;;;;;;;;;;;5.10;99.90;;;;;;4971928;28;20661;-79
2024/02/27 09:33:48;;;;;;;;;;;5.20;99.90;;;;;;4985534;28;19918;-79
2024/02/27 09:36:13;;;;;;;;;;;5.20;99.90;;;;;;5002209;28;19919;-79
2024/02/27 09:38:41;;;;;;;;;;;5.20;99.90;;;;;;4986000;28;19986;-80
2024/02/27 09:41:06;;;;;;;;;;;5.20;99.90;;;;;;5001983;28;19917;-80
2024/02/27 09:43:33;;;;;;;;;;;5.20;99.90;;;;;;4985975;28;19914;-80
2024/02/27 09:46:00;;;;;;;;;;;5.20;99.90;;;;;;4969128;28;19925;-81
2024/02/27 09:48:28;;;;;;;;;;;5.20;99.90;;;;;;5000480;28;19917;-80
2024/02/27 09:50:54;;;;;;;;;;;5.30;99.90;;;;;;4967646;28;19917;-81
2024/02/27 09:53:21;;;;;;;;;;;5.30;99.90;;;;;;4968282;28;19921;-81
2024/02/27 09:55:47;;;;;;;;;;;5.30;99.90;;;;;;4984892;28;19968;-80
2024/02/27 09:58:12;;;;;;;;;;;5.40;99.90;;;;;;5000890;28;19971;-81
2024/02/27 10:00:38;;;;;;;;;;;5.40;99.90;;;;;;4984916;28;19922;-81
2024/02/27 10:03:04;;;;;;;;;;;5.50;99.90;;;;;;4965725;28;19918;-80
2024/02/27 10:05:30;;;;;;;;;;;5.50;99.90;;;;;;4966939;28;19929;-80
2024/02/27 10:07:56;;;;;;;;;;;5.50;99.90;;;;;;4968662;28;20269;-81
2024/02/27 10:10:21;;;;;;;;;;;5.60;99.90;;;;;;4965673;28;19914;-80
2024/02/27 10:12:50;;;;;;;;;;;5.60;99.90;;;;;;4942729;28;19936;-80
2024/02/27 10:15:18;;;;;;;;;;;5.60;99.90;;;;;;4949702;28;19936;-80
2024/02/27 10:17:45;;;;;;;;;;;5.70;99.90;;;;;;4949312;28;19913;-81
2024/02/27 10:20:11;;;;;;;;;;;5.70;99.90;;;;;;4964790;28;19965;-80
2024/02/27 10:22:39;;;;;;;;;;;5.70;99.90;;;;;;4977516;28;19918;-80
2024/02/27 10:25:06;;;;;;;;;;;5.70;99.90;;;;;;4961478;28;20576;-80
2024/02/27 10:27:32;;;;;;;;;;;5.70;99.90;;;;;;4929009;28;19914;-80
2024/02/27 10:29:57;;;;;;;;;;;5.70;99.90;;;;;;4944836;28;19965;-80
2024/02/27 10:32:23;;;;;;;;;;;5.90;99.90;;;;;;4960569;28;20470;-79
2024/02/27 10:34:53;;;;;;;;;;;5.80;99.90;;;;;;4960636;28;20307;-79
2024/02/27 10:37:20;;;;;;;;;;;5.80;99.90;;;;;;4940476;28;20298;-81
2024/02/27 10:39:48;;;;;;;;;;;5.80;99.90;;;;;;4974927;28;20000;-80
2024/02/27 10:42:14;;;;;;;;;;;5.80;99.90;;;;;;4963133;28;19946;-80
2024/02/27 10:44:40;;;;;;;;;;;5.80;99.90;;;;;;4960214;28;19953;-80
2024/02/27 10:47:07;;;;;;;;;;;5.90;99.90;;;;;;4960391;28;20009;-80
2024/02/27 10:49:34;;;;;;;;;;;5.90;99.90;;;;;;4963799;28;19920;-79
2024/02/27 10:52:00;;;;;;;;;;;5.90;99.90;;;;;;4946648;28;20338;-80
2024/02/27 10:54:25;;;;;;;;;;;5.90;99.90;;;;;;4963522;28;19918;-79
2024/02/27 10:56:55;;;;;;;;;;;5.90;99.90;;;;;;4938154;28;19918;-79
2024/02/27 10:59:23;;;;;;;;;;;5.90;99.90;;;;;;4961581;28;19993;-79
2024/02/27 11:01:48;;;;;;;;;;;6.00;99.90;;;;;;4970380;28;20330;-79
2024/02/27 11:04:17;;;;;;;;;;;6.00;99.90;;;;;;4960358;28;19949;-79
2024/02/27 11:06:46;;;;;;;;;;;6.00;99.90;;;;;;4962153;28;19914;-80
2024/02/27 11:09:14;;;;;;;;;;;6.00;99.90;;;;;;4947707;28;19968;-81
2024/02/27 11:11:43;;;;;;;;;;;5.90;99.90;;;;;;4963660;28;19976;-81
2024/02/27 11:14:09;;;;;;;;;;;6.00;99.90;;;;;;4973754;28;19930;-81
2024/02/27 11:16:36;;;;;;;;;;;6.10;99.90;;;;;;4954795;28;19917;-81
2024/02/27 11:19:21;;;;;;;;;;;6.20;99.90;;;;;;4947430;28;20020;-81
2024/02/27 11:21:52;;;;;;;;;;;6.30;99.90;;;;;;4996194;28;19944;-81
2024/02/27 11:24:21;;;;;;;;;;;6.30;99.90;;;;;;4949728;28;19922;-81
2024/02/27 11:26:55;;;;;;;;;;;6.40;99.90;;;;;;4928911;28;20001;-81
2024/02/27 11:29:21;;;;;;;;;;;6.40;99.90;;;;;;4928054;28;19914;-81
2024/02/27 11:32:06;;;;;;;;;;;6.30;99.90;;;;;;4948825;28;19918;-81
2024/02/27 11:34:33;;;;;;;;;;;6.30;99.90;;;;;;4963332;28;20297;-81
2024/02/27 11:37:09;;;;;;;;;;;6.30;99.90;;;;;;4962501;28;19922;-81
2024/02/27 11:39:35;;;;;;;;;;;6.20;99.90;;;;;;4946488;28;19918;-80
2024/02/27 11:42:07;;;;;;;;;;;6.20;99.90;;;;;;4963945;28;19922;-81
2024/02/27 11:44:36;;;;;;;;;;;6.10;99.90;;;;;;4970123;28;19926;-81
2024/02/27 11:47:30;;;;;;;;;;;6.00;99.90;;;;;;4957954;28;19914;-81
2024/02/27 11:49:56;;;;;;;;;;;6.00;99.90;;;;;;4979691;28;19914;-81
2024/02/27 11:52:23;;;;;;;;;;;6.00;99.90;;;;;;4971608;28;19921;-81
2024/02/27 11:54:49;;;;;;;;;;;6.20;99.90;;;;;;4952807;28;20353;-79
2024/02/27 11:57:15;;;;;;;;;;;6.10;99.90;;;;;;4963416;28;19920;-80
2024/02/27 11:59:41;;;;;;;;;;;6.20;99.90;;;;;;4961952;28;19988;-80
2024/02/27 12:02:07;;;;;;;;;;;6.20;99.90;;;;;;4965511;28;19924;-80
2024/02/27 12:04:36;;;;;;;;;;;6.20;99.90;;;;;;4965343;28;19917;-80
2024/02/27 12:07:08;;;;;;;;;;;6.20;99.90;;;;;;4958876;28;19926;-80
2024/02/27 12:09:51;;;;;;;;;;;6.20;99.90;;;;;;4963225;28;20357;-81
2024/02/27 12:12:24;;;;;;;;;;;6.30;99.90;;;;;;4975763;28;19929;-80
2024/02/27 12:14:57;;;;;;;;;;;6.40;99.90;;;;;;4978884;28;19917;-80
2024/02/27 12:17:24;;;;;;;;;;;6.40;99.90;;;;;;4961937;28;19936;-80
2024/02/27 12:19:50;;;;;;;;;;;6.40;99.90;;;;;;4961641;28;19982;-81
2024/02/27 12:22:23;;;;;;;;;;;6.50;99.90;;;;;;4976935;28;19963;-80
2024/02/27 12:24:53;;;;;;;;;;;6.50;99.90;;;;;;4946942;28;19929;-81
2024/02/27 12:27:19;;;;;;;;;;;6.50;99.90;;;;;;4963358;28;19926;-80
2024/02/27 12:29:54;;;;;;;;;;;6.60;99.90;;;;;;4947082;28;19929;-80
2024/02/27 12:32:21;;;;;;;;;;;6.60;99.90;;;;;;4978421;28;19956;-80
2024/02/27 12:34:48;;;;;;;;;;;6.60;99.90;;;;;;4978401;28;19906;-81
2024/02/27 12:37:22;;;;;;;;;;;6.60;99.90;;;;;;4985228;28;20345;-80
2024/02/27 12:39:48;;;;;;;;;;;6.60;99.90;;;;;;4969956;28;20429;-79
2024/02/27 12:42:14;;;;;;;;;;;6.60;99.90;;;;;;4983732;28;19914;-79
2024/02/27 12:44:46;;;;;;;;;;;6.70;99.90;;;;;;4950637;28;20361;-79
2024/02/27 12:47:12;;;;;;;;;;;6.70;99.90;;;;;;4971510;28;19980;-79
2024/02/27 12:49:38;;;;;;;;;;;6.70;99.90;;;;;;4954008;28;19968;-79
2024/02/27 12:52:11;;;;;;;;;;;6.60;99.90;;;;;;4943129;28;19925;-79
2024/02/27 12:54:36;;;;;;;;;;;6.70;99.90;;;;;;4959938;28;20347;-79
2024/02/27 12:57:02;;;;;;;;;;;6.70;99.90;;;;;;4981346;28;19917;-78
2024/02/27 12:59:28;;;;;;;;;;;6.50;99.90;;;;;;4976438;28;20317;-79
2024/02/27 13:01:55;;;;;;;;;;;6.50;99.90;;;;;;4964961;28;19917;-79
2024/02/27 13:04:22;;;;;;;;;;;6.60;99.90;;;;;;4965478;28;19918;-79
2024/02/27 13:06:48;;;;;;;;;;;6.60;99.90;;;;;;4966031;28;20330;-79
2024/02/27 13:09:16;;;;;;;;;;;6.60;99.90;;;;;;4950431;28;19920;-79
2024/02/27 13:11:44;;;;;;;;;;;6.60;99.90;;;;;;4969282;28;19918;-79
2024/02/27 13:14:11;;;;;;;;;;;6.60;99.90;;;;;;4985156;28;19921;-79
2024/02/27 13:16:37;;;;;;;;;;;6.60;99.90;;;;;;5012509;28;19949;-79
2024/02/27 13:19:03;;;;;;;;;;;6.60;99.90;;;;;;4981493;28;19953;-79
2024/02/27 13:21:32;;;;;;;;;;;6.60;99.90;;;;;;4983292;28;19946;-79
2024/02/27 13:24:04;;;;;;;;;;;6.50;99.90;;;;;;4957208;28;19913;-79
2024/02/27 13:26:30;;;;;;;;;;;6.50;99.90;;;;;;4969517;28;19917;-79
2024/02/27 13:28:55;;;;;;;;;;;6.50;99.90;;;;;;4969861;28;19985;-80
2024/02/27 13:31:21;;;;;;;;;;;6.50;99.90;;;;;;4992641;28;20028;-79
2024/02/27 13:33:50;;;;;;;;;;;6.50;99.90;;;;;;4983386;28;19921;-79
2024/02/27 13:36:15;;;;;;;;;;;6.50;99.90;;;;;;4947450;28;20366;-79
2024/02/27 13:38:41;;;;;;;;;;;6.60;99.90;;;;;;4947010;28;19914;-79
2024/02/27 13:41:07;;;;;;;;;;;6.60;99.90;;;;;;4949392;28;19913;-79
2024/02/27 13:43:36;;;;;;;;;;;6.50;99.90;;;;;;4946797;28;19914;-79
2024/02/27 13:46:05;;;;;;;;;;;6.60;99.90;;;;;;4981734;28;19922;-79
2024/02/27 13:48:30;;;;;;;;;;;6.60;99.90;;;;;;4962982;28;20769;-79
2024/02/27 13:50:57;;;;;;;;;;;6.60;99.90;;;;;;4946427;28;19959;-80
2024/02/27 13:53:22;;;;;;;;;;;6.50;99.90;;;;;;4961908;28;19918;-79
2024/02/27 13:55:51;;;;;;;;;;;6.60;99.90;;;;;;4954710;28;20342;-79
2024/02/27 13:58:19;;;;;;;;;;;6.60;99.90;;;;;;4945821;28;19914;-80
2024/02/27 14:00:51;;;;;;;;;;;6.70;99.90;;;;;;4963943;28;19918;-80
2024/02/27 14:03:21;;;;;;;;;;;6.70;99.90;;;;;;4945185;28;20355;-80
2024/02/27 14:05:57;;;;;;;;;;;6.70;99.90;;;;;;4953154;28;19970;-81
2024/02/27 14:08:36;;;;;;;;;;;6.70;99.90;;;;;;4958600;28;19906;-82
2024/02/27 14:11:14;;;;;;;;;;;6.60;99.90;;;;;;4962913;28;20296;-80
2024/02/27 14:13:45;;;;;;;;;;;6.60;99.90;;;;;;4931694;28;19922;-80
2024/02/27 14:16:11;;;;;;;;;;;6.70;99.90;;;;;;4977580;28;19914;-79
2024/02/27 14:18:38;;;;;;;;;;;6.70;99.90;;;;;;4949351;28;19925;-78
2024/02/27 14:21:03;;;;;;;;;;;6.60;99.90;;;;;;4964990;28;20258;-78
2024/02/27 14:23:29;;;;;;;;;;;6.70;99.90;;;;;;4960826;28;19922;-79
2024/02/27 14:25:57;;;;;;;;;;;6.70;99.90;;;;;;4961757;28;19914;-79
2024/02/27 14:28:23;;;;;;;;;;;6.70;99.90;;;;;;4945447;28;19914;-79
2024/02/27 14:30:49;;;;;;;;;;;6.70;99.90;;;;;;4951020;28;20315;-80
2024/02/27 14:33:15;;;;;;;;;;;6.70;99.90;;;;;;4945118;28;20287;-79
2024/02/27 14:35:40;;;;;;;;;;;6.70;99.90;;;;;;4960844;28;19925;-80
2024/02/27 14:38:09;;;;;;;;;;;6.60;99.90;;;;;;4961176;28;19915;-79
2024/02/27 14:40:35;;;;;;;;;;;6.70;99.90;;;;;;4952841;28;19973;-79
2024/02/27 14:43:01;;;;;;;;;;;6.70;99.90;;;;;;4964203;28;19917;-79
2024/02/27 14:45:27;;;;;;;;;;;6.70;99.90;;;;;;4980524;28;19914;-79
2024/02/27 14:47:54;;;;;;;;;;;6.70;99.90;;;;;;4960887;28;20296;-79
2024/02/27 14:50:19;;;;;;;;;;;6.70;99.90;;;;;;4962579;28;20000;-80
2024/02/27 14:52:45;;;;;;;;;;;6.70;99.90;;;;;;4948102;28;20295;-79
2024/02/27 14:55:11;;;;;;;;;;;6.60;99.90;;;;;;4944118;28;19918;-79
2024/02/27 14:57:36;;;;;;;;;;;6.70;99.90;;;;;;4949126;28;19922;-79
2024/02/27 15:00:05;;;;;;;;;;;6.60;99.90;;;;;;4954045;28;20379;-79
2024/02/27 15:02:30;;;;;;;;;;;6.60;99.90;;;;;;4943146;28;19924;-79
2024/02/27 15:04:56;;;;;;;;;;;6.60;99.90;;;;;;4972407;28;20004;-79
2024/02/27 15:07:23;;;;;;;;;;;6.60;99.90;;;;;;4962636;28;19979;-79
2024/02/27 15:09:50;;;;;;;;;;;6.60;99.90;;;;;;4979471;28;19920;-79
2024/02/27 15:12:15;;;;;;;;;;;6.60;99.90;;;;;;4965834;28;19918;-79
2024/02/27 15:14:44;;;;;;;;;;;6.70;99.90;;;;;;4982734;28;19913;-79
2024/02/27 15:17:10;;;;;;;;;;;6.60;99.90;;;;;;4998693;28;20068;-79
2024/02/27 15:19:37;;;;;;;;;;;6.60;99.90;;;;;;4982308;28;19920;-80
2024/02/27 15:22:03;;;;;;;;;;;6.60;99.90;;;;;;4977765;28;19913;-80
2024/02/27 15:24:29;;;;;;;;;;;6.70;99.90;;;;;;4958743;28;19922;-80
2024/02/27 15:26:55;;;;;;;;;;;6.50;99.90;;;;;;4982303;28;19928;-80
2024/02/27 15:29:20;;;;;;;;;;;6.50;99.90;;;;;;4982639;28;20238;-80
2024/02/27 15:31:46;;;;;;;;;;;6.40;99.90;;;;;;4982601;28;19960;-80
2024/02/27 15:34:12;;;;;;;;;;;6.50;99.90;;;;;;4982349;28;19983;-80
2024/02/27 15:36:37;;;;;;;;;;;6.40;99.90;;;;;;4962561;28;20353;-80
2024/02/27 15:39:03;;;;;;;;;;;6.40;99.90;;;;;;4978733;28;19917;-80
2024/02/27 15:41:29;;;;;;;;;;;6.50;99.90;;;;;;4985362;28;20008;-80
2024/02/27 15:43:55;;;;;;;;;;;6.30;99.90;;;;;;5002832;28;20004;-80
2024/02/27 15:46:21;;;;;;;;;;;6.30;99.90;;;;;;4984473;28;20334;-80
2024/02/27 15:48:46;;;;;;;;;;;6.30;99.90;;;;;;5005559;28;19929;-80
2024/02/27 15:51:12;;;;;;;;;;;6.30;99.90;;;;;;4977865;28;19924;-79
2024/02/27 15:53:40;;;;;;;;;;;6.30;99.90;;;;;;4980286;28;19917;-80
2024/02/27 15:56:06;;;;;;;;;;;6.20;99.90;;;;;;4997146;28;19968;-79
2024/02/27 15:58:32;;;;;;;;;;;6.30;99.90;;;;;;4996704;28;20297;-79